createdAt,value
2023-03-22T00:01:24.776Z,32.10
2023-03-22T00:03:52.010Z,31.40
2023-03-22T00:06:18.960Z,32.20
2023-03-22T00:08:50.016Z,33.00
2023-03-22T00:11:17.088Z,33.30
2023-03-22T00:13:46.275Z,32.80
2023-03-22T00:16:16.881Z,31.90
2023-03-22T00:18:43.345Z,28.50
2023-03-22T00:21:16.737Z,28.50
2023-03-22T00:23:44.149Z,31.20
2023-03-22T00:26:13.417Z,30.10
2023-03-22T00:28:40.652Z,31.00
2023-03-22T00:31:08.115Z,28.60
2023-03-22T00:33:35.679Z,32.40
2023-03-22T00:36:08.865Z,33.20
2023-03-22T00:38:42.625Z,29.80
2023-03-22T00:41:15.329Z,30.70
2023-03-22T00:43:42.547Z,32.30
2023-03-22T00:46:11.003Z,37.80
2023-03-22T00:48:37.608Z,38.70
2023-03-22T00:51:04.976Z,39.00
2023-03-22T00:53:35.864Z,42.20
2023-03-22T00:56:03.822Z,40.50
2023-03-22T00:58:30.252Z,39.30
2023-03-22T01:00:56.930Z,38.40
2023-03-22T01:03:23.929Z,35.20
2023-03-22T01:05:54.774Z,36.70
2023-03-22T01:08:22.647Z,34.60
2023-03-22T01:10:49.756Z,34.80
2023-03-22T01:13:17.916Z,36.10
2023-03-22T01:15:47.056Z,35.90
2023-03-22T01:18:16.714Z,44.60
2023-03-22T01:20:43.189Z,37.40
2023-03-22T01:23:09.634Z,37.30
2023-03-22T01:25:36.377Z,37.20
2023-03-22T01:28:02.898Z,44.10
2023-03-22T01:30:29.664Z,44.90
2023-03-22T01:32:56.266Z,40.20
2023-03-22T01:35:22.908Z,36.30
2023-03-22T01:37:49.667Z,33.20
2023-03-22T01:40:16.637Z,34.10
2023-03-22T01:42:43.154Z,35.70
2023-03-22T01:45:12.515Z,35.90
2023-03-22T01:47:43.021Z,33.60
2023-03-22T01:50:09.786Z,37.00
2023-03-22T01:52:36.990Z,36.00
2023-03-22T01:55:05.729Z,37.40
2023-03-22T01:57:36.837Z,33.00
2023-03-22T02:00:12.644Z,31.30
2023-03-22T02:02:39.085Z,33.50
2023-03-22T02:05:05.865Z,35.10
2023-03-22T02:07:32.368Z,33.20
2023-03-22T02:09:59.154Z,35.70
2023-03-22T02:12:28.556Z,33.10
2023-03-22T02:15:24.336Z,33.40
2023-03-22T02:18:30.776Z,32.70
2023-03-22T02:21:56.046Z,32.60
2023-03-22T02:25:01.005Z,31.50
2023-03-22T02:27:34.961Z,28.70
2023-03-22T02:30:23.130Z,28.70
2023-03-22T02:32:52.390Z,28.20
2023-03-22T02:35:33.699Z,27.90
2023-03-22T02:38:32.295Z,30.00
2023-03-22T02:41:21.943Z,27.30
2023-03-22T02:43:48.314Z,28.30
2023-03-22T02:46:38.261Z,26.20
2023-03-22T02:49:35.213Z,26.20
2023-03-22T02:52:19.613Z,26.30
2023-03-22T02:54:54.490Z,27.30
2023-03-22T02:57:37.194Z,29.30
2023-03-22T03:00:10.911Z,28.20
2023-03-22T03:02:41.508Z,24.80
2023-03-22T03:05:10.275Z,25.90
2023-03-22T03:07:38.020Z,25.30
2023-03-22T03:10:05.965Z,26.20
2023-03-22T03:12:32.392Z,26.70
2023-03-22T03:14:58.888Z,30.40
2023-03-22T03:17:33.511Z,26.30
2023-03-22T03:20:18.587Z,25.10
2023-03-22T03:22:50.863Z,25.10
2023-03-22T03:25:30.693Z,26.00
2023-03-22T03:28:15.410Z,28.10
2023-03-22T03:30:55.828Z,26.90
2023-03-22T03:33:26.014Z,28.30
2023-03-22T03:36:00.459Z,30.90
2023-03-22T03:38:31.054Z,29.60
2023-03-22T03:41:01.574Z,29.50
2023-03-22T03:43:28.085Z,32.00
2023-03-22T03:45:55.263Z,33.00
2023-03-22T03:48:26.152Z,33.10
2023-03-22T03:50:53.661Z,30.20
2023-03-22T03:53:20.218Z,28.50
2023-03-22T03:55:46.715Z,28.20
2023-03-22T03:58:15.413Z,28.40
2023-03-22T04:00:42.546Z,29.50
2023-03-22T04:03:09.331Z,28.90
2023-03-22T04:05:36.284Z,30.40
2023-03-22T04:08:02.962Z,28.10
2023-03-22T04:10:29.656Z,24.60
2023-03-22T04:12:56.023Z,25.30
2023-03-22T04:15:23.530Z,25.80
2023-03-22T04:17:51.070Z,25.30
2023-03-22T04:20:17.822Z,24.20
2023-03-22T04:22:46.204Z,25.20
2023-03-22T04:25:13.745Z,23.70
2023-03-22T04:27:41.381Z,22.50
2023-03-22T04:30:11.759Z,23.80
2023-03-22T04:32:39.112Z,23.70
2023-03-22T04:35:05.932Z,23.40
2023-03-22T04:37:33.045Z,22.10
2023-03-22T04:39:59.978Z,22.90
2023-03-22T04:42:26.881Z,22.90
2023-03-22T04:44:53.508Z,20.80
2023-03-22T04:47:20.025Z,20.70
2023-03-22T04:49:47.492Z,20.30
2023-03-22T04:52:14.907Z,18.40
2023-03-22T04:54:41.806Z,20.00
2023-03-22T04:57:08.993Z,20.70
2023-03-22T04:59:35.386Z,19.20
2023-03-22T05:02:02.354Z,20.30
2023-03-22T05:04:28.889Z,19.30
2023-03-22T05:06:55.398Z,19.60
2023-03-22T05:09:23.505Z,18.20
2023-03-22T05:11:50.485Z,19.80
2023-03-22T05:14:16.926Z,20.80
2023-03-22T05:16:43.408Z,21.00
2023-03-22T05:19:15.651Z,21.10
2023-03-22T05:21:43.413Z,18.60
2023-03-22T05:24:10.655Z,19.10
2023-03-22T05:26:41.530Z,15.10
2023-03-22T05:29:10.335Z,16.70
2023-03-22T05:31:37.002Z,15.20
2023-03-22T05:34:03.922Z,14.80
2023-03-22T05:36:30.583Z,15.90
2023-03-22T05:39:04.066Z,14.90
2023-03-22T05:43:57.555Z,13.40
2023-03-22T05:46:54.149Z,14.10
2023-03-22T05:49:21.703Z,14.60
2023-03-22T05:51:50.051Z,14.60
2023-03-22T05:54:16.550Z,14.00
2023-03-22T05:56:43.644Z,15.00
2023-03-22T05:59:10.302Z,15.10
2023-03-22T06:01:37.137Z,12.50
2023-03-22T06:04:04.021Z,15.60
2023-03-22T06:06:30.871Z,15.90
2023-03-22T06:09:07.303Z,15.90
2023-03-22T06:11:42.460Z,17.30
2023-03-22T06:14:09.506Z,16.80
2023-03-22T06:16:36.535Z,15.90
2023-03-22T06:19:03.055Z,16.00
2023-03-22T06:21:29.771Z,15.70
2023-03-22T06:23:56.344Z,17.30
2023-03-22T06:26:22.785Z,16.60
2023-03-22T06:28:50.436Z,16.70
2023-03-22T06:31:17.320Z,15.20
2023-03-22T06:33:44.881Z,14.30
2023-03-22T06:36:11.472Z,14.50
2023-03-22T06:38:38.080Z,15.30
2023-03-22T06:41:05.226Z,13.60
2023-03-22T06:43:32.123Z,14.60
2023-03-22T06:45:58.615Z,13.50
2023-03-22T06:48:28.640Z,14.90
2023-03-22T06:50:55.142Z,15.20
2023-03-22T06:53:21.994Z,16.30
2023-03-22T06:55:49.040Z,13.70
2023-03-22T06:58:22.983Z,14.40
2023-03-22T07:00:49.750Z,14.20
2023-03-22T07:03:19.665Z,13.70
2023-03-22T07:05:46.592Z,14.20
2023-03-22T07:08:13.527Z,14.60
2023-03-22T07:10:40.629Z,15.80
2023-03-22T07:13:07.217Z,15.90
2023-03-22T07:15:34.438Z,15.50
2023-03-22T07:18:02.203Z,16.20
2023-03-22T07:20:29.178Z,15.50
2023-03-22T07:22:55.680Z,15.90
2023-03-22T07:25:22.356Z,13.50
2023-03-22T07:27:48.918Z,16.30
2023-03-22T07:30:15.962Z,15.60
2023-03-22T07:32:42.841Z,15.90
2023-03-22T07:35:09.369Z,16.60
2023-03-22T07:37:35.844Z,16.20
2023-03-22T07:40:04.234Z,15.80
2023-03-22T07:42:31.422Z,15.40
2023-03-22T07:44:58.706Z,15.50
2023-03-22T07:47:40.030Z,17.20
2023-03-22T07:50:08.982Z,16.90
2023-03-22T07:52:36.444Z,16.00
2023-03-22T07:55:04.297Z,16.80
2023-03-22T07:57:30.955Z,15.80
2023-03-22T08:00:02.917Z,16.30
2023-03-22T08:02:30.597Z,18.10
2023-03-22T08:04:57.293Z,18.80
2023-03-22T08:07:24.601Z,19.20
2023-03-22T08:09:51.731Z,19.40
2023-03-22T08:12:18.824Z,22.10
2023-03-22T08:14:49.827Z,20.10
2023-03-22T08:17:17.533Z,19.50
2023-03-22T08:19:57.929Z,20.50
2023-03-22T08:22:29.063Z,19.80
2023-03-22T08:24:55.933Z,21.10
2023-03-22T08:27:22.337Z,21.00
2023-03-22T08:29:48.853Z,21.00
2023-03-22T08:32:16.270Z,19.30
2023-03-22T08:34:43.842Z,21.20
2023-03-22T08:37:12.064Z,21.20
2023-03-22T08:39:39.185Z,19.10
2023-03-22T08:42:05.711Z,19.20
2023-03-22T08:44:32.139Z,19.40
2023-03-22T08:46:58.938Z,20.50
2023-03-22T08:49:26.570Z,17.30
2023-03-22T08:51:53.383Z,18.20
2023-03-22T08:54:20.162Z,18.80
2023-03-22T08:56:47.645Z,17.70
2023-03-22T08:59:14.155Z,17.00
2023-03-22T09:01:40.730Z,16.60
2023-03-22T09:04:10.199Z,16.70
2023-03-22T09:06:38.096Z,16.80
2023-03-22T09:09:04.551Z,17.00
2023-03-22T09:11:30.980Z,17.40
2023-03-22T09:13:57.384Z,17.80
2023-03-22T09:16:24.021Z,17.20
2023-03-22T09:18:50.985Z,17.10
2023-03-22T09:21:17.901Z,17.70
2023-03-22T09:23:47.398Z,16.80
2023-03-22T09:26:14.475Z,17.30
2023-03-22T09:28:41.071Z,18.90
2023-03-22T09:31:09.871Z,18.00
2023-03-22T09:33:38.330Z,15.50
2023-03-22T09:36:05.946Z,16.60
2023-03-22T09:38:35.816Z,15.10
2023-03-22T09:41:06.815Z,13.60
2023-03-22T09:43:37.311Z,14.80
2023-03-22T09:46:10.207Z,16.50
2023-03-22T09:48:40.242Z,15.90
2023-03-22T09:51:18.775Z,15.30
2023-03-22T09:53:45.251Z,15.00
2023-03-22T09:56:22.432Z,14.50
2023-03-22T09:59:10.662Z,14.60
2023-03-22T10:01:48.001Z,14.80
2023-03-22T10:04:35.724Z,15.40
2023-03-22T10:07:20.715Z,14.90
2023-03-22T10:10:12.031Z,15.20
2023-03-22T10:12:53.152Z,13.00
2023-03-22T10:15:28.168Z,13.90
2023-03-22T10:17:57.526Z,12.90
2023-03-22T10:20:33.711Z,11.60
2023-03-22T10:23:03.408Z,12.20
2023-03-22T10:25:39.463Z,11.60
2023-03-22T10:28:16.903Z,11.40
2023-03-22T10:30:50.371Z,11.30
2023-03-22T10:33:36.420Z,10.90
2023-03-22T10:36:05.549Z,10.80
2023-03-22T10:38:36.886Z,9.90
2023-03-22T10:41:04.878Z,7.50
2023-03-22T10:43:40.715Z,7.50
2023-03-22T10:46:14.948Z,6.90
2023-03-22T10:48:45.071Z,6.40
2023-03-22T10:51:22.599Z,5.80
2023-03-22T10:53:53.145Z,7.20
2023-03-22T10:56:20.609Z,7.90
2023-03-22T10:58:49.094Z,8.70
2023-03-22T11:01:25.122Z,8.70
2023-03-22T11:03:56.759Z,9.30
2023-03-22T11:06:26.594Z,8.80
2023-03-22T11:08:57.773Z,8.20
2023-03-22T11:11:36.039Z,7.60
2023-03-22T11:14:07.732Z,7.80
2023-03-22T11:16:51.995Z,7.80
2023-03-22T11:19:23.143Z,7.80
2023-03-22T11:21:50.982Z,7.90
2023-03-22T11:24:18.375Z,7.80
2023-03-22T11:27:20.908Z,8.20
2023-03-22T11:29:53.372Z,7.30
2023-03-22T11:32:29.526Z,6.80
2023-03-22T11:35:04.783Z,6.50
2023-03-22T11:37:31.223Z,6.60
2023-03-22T11:40:01.288Z,6.70
2023-03-22T11:42:28.480Z,6.00
2023-03-22T11:44:56.574Z,6.50
2023-03-22T11:47:26.511Z,7.10
2023-03-22T11:49:56.607Z,7.30
2023-03-22T11:52:26.218Z,6.90
2023-03-22T11:54:54.639Z,6.10
2023-03-22T11:57:25.795Z,6.40
2023-03-22T12:00:17.581Z,6.70
2023-03-22T12:02:55.120Z,7.30
2023-03-22T12:05:26.675Z,6.40
2023-03-22T12:08:16.705Z,6.20
2023-03-22T12:10:50.477Z,5.30
2023-03-22T12:14:02.486Z,6.20
2023-03-22T12:16:36.160Z,5.90
2023-03-22T12:19:50.873Z,6.30
2023-03-22T12:24:47.618Z,6.00
2023-03-22T12:27:24.083Z,6.20
2023-03-22T12:29:59.357Z,5.60
2023-03-22T12:32:35.554Z,5.90
2023-03-22T12:35:16.651Z,6.30
2023-03-22T12:37:57.604Z,5.90
2023-03-22T12:40:33.769Z,5.90
2023-03-22T12:43:06.054Z,5.70
2023-03-22T12:45:40.092Z,6.10
2023-03-22T12:48:13.993Z,6.40
2023-03-22T12:50:56.780Z,5.70
2023-03-22T12:53:30.546Z,6.70
2023-03-22T12:55:59.283Z,6.40
2023-03-22T12:58:26.768Z,6.40
2023-03-22T13:00:58.005Z,6.20
2023-03-22T13:03:36.443Z,5.90
2023-03-22T13:06:32.539Z,6.80
2023-03-22T13:09:01.974Z,5.70
2023-03-22T13:11:28.457Z,7.10
2023-03-22T13:13:55.384Z,6.50
2023-03-22T13:16:40.428Z,6.30
2023-03-22T13:19:26.105Z,6.70
2023-03-22T13:22:14.200Z,6.70
2023-03-22T13:25:04.068Z,7.60
2023-03-22T13:27:53.335Z,6.20
2023-03-22T13:30:21.076Z,6.30
2023-03-22T13:32:53.861Z,6.00
2023-03-22T13:35:27.330Z,6.60
2023-03-22T13:38:02.253Z,6.60
2023-03-22T13:40:37.466Z,6.90
2023-03-22T13:43:22.996Z,6.60
2023-03-22T13:46:17.060Z,6.40
2023-03-22T13:48:46.860Z,6.10
2023-03-22T13:51:16.897Z,6.30
2023-03-22T13:54:04.244Z,6.40
2023-03-22T13:57:01.922Z,6.60
2023-03-22T14:00:14.790Z,6.10
2023-03-22T14:02:51.595Z,6.30
2023-03-22T14:05:26.149Z,6.80
2023-03-22T14:07:59.656Z,5.80
2023-03-22T14:13:54.529Z,6.30
2023-03-22T14:17:02.476Z,6.60
2023-03-22T14:19:38.992Z,6.10
